createdAt,value
2017-04-10T00:00:08.671Z,0
2017-04-10T00:01:10.509Z,0
2017-04-10T00:02:12.334Z,0
2017-04-10T00:03:14.498Z,0
2017-04-10T00:04:16.666Z,0
2017-04-10T00:05:18.492Z,0
2017-04-10T00:06:20.325Z,0
2017-04-10T00:07:22.831Z,0
2017-04-10T00:08:24.650Z,0
2017-04-10T00:09:26.481Z,0
2017-04-10T00:10:28.315Z,0
2017-04-10T00:11:30.143Z,0
2017-04-10T00:12:31.971Z,0
2017-04-10T00:13:33.799Z,0
2017-04-10T00:14:35.627Z,0
2017-04-10T00:15:37.454Z,0
2017-04-10T00:16:39.287Z,0
2017-04-10T00:17:41.117Z,0
2017-04-10T00:18:42.955Z,0
2017-04-10T00:19:44.791Z,0
2017-04-10T00:20:46.956Z,0
2017-04-10T00:21:48.840Z,0
2017-04-10T00:22:50.671Z,0
2017-04-10T00:23:52.507Z,0
2017-04-10T00:24:54.332Z,0
2017-04-10T00:25:56.510Z,0
2017-04-10T00:26:58.347Z,0
2017-04-10T00:28:00.547Z,0
2017-04-10T00:29:02.712Z,0
2017-04-10T00:30:04.896Z,0
2017-04-10T00:31:06.725Z,0
2017-04-10T00:32:08.892Z,0
2017-04-10T00:33:10.717Z,0
2017-04-10T00:34:12.547Z,0
2017-04-10T00:35:14.419Z,0
2017-04-10T00:36:16.245Z,0
2017-04-10T00:37:18.104Z,0
2017-04-10T00:38:19.929Z,0
2017-04-10T00:39:22.100Z,0
2017-04-10T00:40:23.940Z,0
2017-04-10T00:41:25.762Z,0
2017-04-10T00:42:27.594Z,0
2017-04-10T00:43:29.425Z,0
2017-04-10T00:44:31.263Z,0
2017-04-10T00:45:33.083Z,0
2017-04-10T00:46:35.263Z,0
2017-04-10T00:47:37.092Z,0
2017-04-10T00:48:38.922Z,0
2017-04-10T00:49:40.754Z,0
2017-04-10T00:50:42.579Z,0
2017-04-10T00:51:44.409Z,0
2017-04-10T00:52:46.236Z,0
2017-04-10T00:53:48.418Z,0
2017-04-10T00:54:50.245Z,0
2017-04-10T00:55:52.424Z,0
2017-04-10T00:56:54.252Z,0
2017-04-10T00:57:56.083Z,0
2017-04-10T00:58:57.913Z,0
2017-04-10T01:00:00.081Z,0
2017-04-10T01:01:01.913Z,0
2017-04-10T01:02:03.747Z,0
2017-04-10T01:03:05.569Z,0
2017-04-10T01:04:07.395Z,0
2017-04-10T01:05:09.221Z,0
2017-04-10T01:06:11.053Z,0
2017-04-10T01:07:12.881Z,0
2017-04-10T01:08:15.040Z,0
2017-04-10T01:09:16.865Z,0
2017-04-10T01:10:19.052Z,0
2017-04-10T01:11:20.892Z,0
2017-04-10T01:12:22.719Z,0
2017-04-10T01:13:24.552Z,0
2017-04-10T01:14:26.384Z,0
2017-04-10T01:15:28.209Z,0
2017-04-10T01:16:30.388Z,0
2017-04-10T01:17:32.218Z,0
2017-04-10T01:18:34.055Z,0
2017-04-10T01:19:36.215Z,0
2017-04-10T01:20:38.045Z,0
2017-04-10T01:21:40.207Z,0
2017-04-10T01:22:42.037Z,0
2017-04-10T01:23:43.869Z,0
2017-04-10T01:24:45.707Z,0
2017-04-10T01:25:47.541Z,0
2017-04-10T01:26:49.366Z,0
2017-04-10T01:27:51.530Z,0
2017-04-10T01:28:53.400Z,0
2017-04-10T01:29:55.251Z,0
2017-04-10T01:30:57.092Z,0
2017-04-10T01:31:58.918Z,0
2017-04-10T01:33:00.787Z,0
2017-04-10T01:34:02.610Z,0
2017-04-10T01:35:04.445Z,0
2017-04-10T01:36:06.273Z,0
2017-04-10T01:37:08.102Z,0
2017-04-10T01:38:09.929Z,0
2017-04-10T01:39:11.769Z,0
2017-04-10T01:40:13.597Z,0
2017-04-10T01:41:15.416Z,0
2017-04-10T01:42:17.247Z,0
2017-04-10T01:43:19.068Z,0
2017-04-10T01:44:21.048Z,0
2017-04-10T01:45:22.867Z,0
2017-04-10T01:46:24.697Z,0
2017-04-10T01:47:26.519Z,0
2017-04-10T01:48:28.353Z,0
2017-04-10T01:49:30.175Z,0
2017-04-10T01:50:31.996Z,0
2017-04-10T01:51:33.820Z,0
2017-04-10T01:52:35.652Z,0
2017-04-10T01:53:37.477Z,0
2017-04-10T01:54:39.303Z,0
2017-04-10T01:55:41.124Z,0
2017-04-10T01:56:42.957Z,0
2017-04-10T01:57:44.775Z,0
2017-04-10T01:58:46.945Z,0
2017-04-10T01:59:48.770Z,0
2017-04-10T02:00:50.593Z,0
2017-04-10T02:01:52.421Z,0
2017-04-10T02:02:54.246Z,0
2017-04-10T02:03:56.409Z,0
2017-04-10T02:04:58.234Z,0
2017-04-10T02:06:00.063Z,0
2017-04-10T02:07:01.883Z,0
2017-04-10T02:08:03.713Z,0
2017-04-10T02:09:05.542Z,0
2017-04-10T02:10:07.733Z,0
2017-04-10T02:11:09.560Z,0
2017-04-10T02:12:12.064Z,0
2017-04-10T02:13:13.893Z,0
2017-04-10T02:14:16.063Z,0
2017-04-10T02:15:17.878Z,0
2017-04-10T02:16:19.723Z,0
2017-04-10T02:17:21.549Z,0
2017-04-10T02:18:23.377Z,0
2017-04-10T02:19:25.536Z,0
2017-04-10T02:20:27.370Z,0
2017-04-10T02:21:29.191Z,0
2017-04-10T02:22:31.017Z,0
2017-04-10T02:23:32.844Z,0
2017-04-10T02:24:34.668Z,0
2017-04-10T02:25:36.503Z,0
2017-04-10T02:26:38.342Z,0
2017-04-10T02:27:40.170Z,0
2017-04-10T02:28:42.667Z,0
2017-04-10T02:29:44.841Z,0
2017-04-10T02:30:46.672Z,0
2017-04-10T02:31:48.492Z,0
2017-04-10T02:32:50.320Z,0
2017-04-10T02:33:52.496Z,0
2017-04-10T02:34:54.320Z,0
2017-04-10T02:35:56.151Z,0
2017-04-10T02:36:57.970Z,0
2017-04-10T02:37:59.797Z,0
2017-04-10T02:39:01.626Z,0
2017-04-10T02:40:03.458Z,0
2017-04-10T02:41:05.284Z,0
2017-04-10T02:42:07.114Z,0
2017-04-10T02:43:08.937Z,0
2017-04-10T02:44:10.770Z,0
2017-04-10T02:45:12.587Z,0
2017-04-10T02:46:14.427Z,0
2017-04-10T02:47:16.257Z,0
2017-04-10T02:48:18.430Z,0
2017-04-10T02:49:20.602Z,0
2017-04-10T02:50:22.424Z,0
2017-04-10T02:51:24.256Z,0
2017-04-10T02:52:26.083Z,0
2017-04-10T02:53:27.901Z,0
2017-04-10T02:54:30.078Z,0
2017-04-10T02:55:31.908Z,0
2017-04-10T02:56:33.736Z,0
2017-04-10T02:57:35.894Z,0
2017-04-10T02:58:37.718Z,0
2017-04-10T02:59:39.544Z,0
2017-04-10T03:00:41.379Z,0
2017-04-10T03:01:43.220Z,0
2017-04-10T03:02:45.041Z,0
2017-04-10T03:03:46.876Z,0
2017-04-10T03:04:48.706Z,0
2017-04-10T03:05:50.533Z,0
2017-04-10T03:06:52.364Z,0
2017-04-10T03:07:54.524Z,0
2017-04-10T03:08:56.703Z,0
2017-04-10T03:09:58.874Z,0
2017-04-10T03:11:00.701Z,0
2017-04-10T03:12:02.529Z,0
2017-04-10T03:13:04.351Z,0
2017-04-10T03:14:06.181Z,0
2017-04-10T03:15:08.004Z,0
2017-04-10T03:16:09.825Z,0
2017-04-10T03:17:11.997Z,0
2017-04-10T03:18:13.832Z,0
2017-04-10T03:19:15.658Z,0
2017-04-10T03:20:17.482Z,0
2017-04-10T03:21:19.311Z,0
2017-04-10T03:22:21.140Z,0
2017-04-10T03:23:22.983Z,0
2017-04-10T03:24:24.822Z,0
2017-04-10T03:25:26.646Z,0
2017-04-10T03:26:28.461Z,0
2017-04-10T03:27:30.287Z,0
2017-04-10T03:28:32.118Z,0
2017-04-10T03:29:33.944Z,0
2017-04-10T03:30:35.776Z,0
2017-04-10T03:31:37.950Z,0
2017-04-10T03:32:39.781Z,0
2017-04-10T03:33:41.611Z,0
2017-04-10T03:34:43.443Z,0
2017-04-10T03:35:45.267Z,0
2017-04-10T03:36:47.095Z,0
2017-04-10T03:37:48.929Z,0
2017-04-10T03:38:51.090Z,0
2017-04-10T03:39:52.925Z,1
2017-04-10T03:40:54.756Z,1
2017-04-10T03:41:56.581Z,1
2017-04-10T03:42:58.412Z,1
2017-04-10T03:44:00.583Z,1
2017-04-10T03:45:02.415Z,1
2017-04-10T03:46:04.240Z,2
2017-04-10T03:47:06.068Z,2
2017-04-10T03:48:08.219Z,0
2017-04-10T03:49:10.045Z,1
2017-04-10T03:50:12.207Z,3
2017-04-10T03:51:14.036Z,3
2017-04-10T03:52:15.859Z,2
2017-04-10T03:53:17.688Z,3
2017-04-10T03:54:19.507Z,5
2017-04-10T03:55:21.347Z,4
2017-04-10T03:56:23.176Z,5
2017-04-10T03:57:25.005Z,7
2017-04-10T03:58:26.820Z,8
2017-04-10T03:59:28.654Z,10
2017-04-10T04:00:30.511Z,11
2017-04-10T04:01:32.689Z,13
2017-04-10T04:02:34.506Z,15
2017-04-10T04:03:36.360Z,18
2017-04-10T04:04:38.181Z,20
2017-04-10T04:05:40.006Z,21
2017-04-10T04:06:41.828Z,25
2017-04-10T04:07:43.647Z,29
2017-04-10T04:08:45.471Z,34
2017-04-10T04:09:47.635Z,37
2017-04-10T04:10:49.459Z,45
2017-04-10T04:11:51.626Z,52
2017-04-10T04:12:53.466Z,61
2017-04-10T04:13:55.293Z,70
2017-04-10T04:14:57.453Z,81
2017-04-10T04:15:59.289Z,94
2017-04-10T04:17:01.152Z,109
2017-04-10T04:18:02.974Z,127
2017-04-10T04:19:04.800Z,145
2017-04-10T04:20:06.625Z,166
2017-04-10T04:21:08.455Z,190
2017-04-10T04:22:10.280Z,215
2017-04-10T04:23:12.104Z,241
2017-04-10T04:24:13.934Z,271
2017-04-10T04:25:15.791Z,299
2017-04-10T04:26:17.617Z,332
2017-04-10T04:27:19.785Z,364
2017-04-10T04:28:21.611Z,397
2017-04-10T04:29:23.443Z,430
2017-04-10T04:30:25.269Z,467
2017-04-10T04:31:27.093Z,503
2017-04-10T04:32:28.915Z,540
2017-04-10T04:33:31.085Z,579
2017-04-10T04:34:32.911Z,617
2017-04-10T04:35:34.733Z,657
2017-04-10T04:36:36.561Z,696
2017-04-10T04:37:38.393Z,738
2017-04-10T04:38:40.219Z,781
2017-04-10T04:39:42.386Z,825
2017-04-10T04:40:44.213Z,870
2017-04-10T04:41:46.041Z,916
2017-04-10T04:42:47.870Z,962
2017-04-10T04:43:49.693Z,1012
2017-04-10T04:44:51.620Z,1063
2017-04-10T04:45:53.445Z,1109
2017-04-10T04:46:55.272Z,1160
2017-04-10T04:47:57.105Z,1213
2017-04-10T04:48:59.306Z,1266
2017-04-10T04:50:01.134Z,658
2017-04-10T04:51:03.611Z,1244
2017-04-10T04:52:07.234Z,1291
2017-04-10T04:53:09.580Z,1339
2017-04-10T04:54:13.482Z,1390
2017-04-10T04:55:15.310Z,1440
2017-04-10T04:56:17.131Z,1493
2017-04-10T04:57:18.962Z,1544
2017-04-10T04:58:20.795Z,1589
2017-04-10T04:59:22.614Z,1633
2017-04-10T05:00:24.778Z,1682
2017-04-10T05:01:26.607Z,1736
2017-04-10T05:02:28.446Z,1790
2017-04-10T05:03:30.271Z,1842
2017-04-10T05:04:32.095Z,1892
2017-04-10T05:05:33.920Z,1941
2017-04-10T05:06:35.751Z,1994
2017-04-10T05:07:37.581Z,2052
2017-04-10T05:08:39.756Z,2112
2017-04-10T05:09:41.910Z,2193
2017-04-10T05:10:44.085Z,2277
2017-04-10T05:11:45.910Z,2333
2017-04-10T05:12:47.740Z,2373
2017-04-10T05:13:49.578Z,2422
2017-04-10T05:14:51.747Z,2482
2017-04-10T05:15:53.583Z,2549
2017-04-10T05:16:55.414Z,2604
2017-04-10T05:17:57.279Z,2709
2017-04-10T05:18:59.125Z,2740
2017-04-10T05:20:06.733Z,2804
2017-04-10T05:21:51.520Z,2899
2017-04-10T05:22:53.345Z,2956
2017-04-10T05:23:55.200Z,2987
2017-04-10T05:24:57.023Z,3035
2017-04-10T05:25:58.867Z,3059
2017-04-10T05:27:00.685Z,3084
2017-04-10T05:28:02.518Z,3093
2017-04-10T05:29:04.343Z,3095
2017-04-10T05:30:06.169Z,3162
2017-04-10T05:31:08.345Z,3227
2017-04-10T05:32:10.422Z,3346
2017-04-10T05:33:13.207Z,3425
2017-04-10T05:34:15.041Z,3511
2017-04-10T05:35:16.867Z,3590
2017-04-10T05:36:18.698Z,3647
2017-04-10T05:37:20.522Z,3711
2017-04-10T05:38:22.351Z,3758
2017-04-10T05:39:24.173Z,3863
2017-04-10T05:40:26.354Z,3957
2017-04-10T05:41:28.183Z,4077
2017-04-10T05:42:30.037Z,4156
2017-04-10T05:43:31.883Z,4235
2017-04-10T05:44:33.716Z,4305
2017-04-10T05:45:35.921Z,4393
2017-04-10T05:46:37.777Z,4474
2017-04-10T05:47:39.625Z,4529
2017-04-10T05:48:41.460Z,4617
2017-04-10T05:49:43.295Z,4679
2017-04-10T05:50:45.153Z,4773
2017-04-10T05:51:47.398Z,4858
2017-04-10T05:52:50.103Z,4882
2017-04-10T05:53:51.942Z,4977
2017-04-10T05:54:53.776Z,5025
2017-04-10T05:55:55.625Z,5056
2017-04-10T05:56:57.865Z,5034
2017-04-10T05:57:59.712Z,5083
2017-04-10T05:59:01.550Z,5195
2017-04-10T06:00:03.420Z,5274
2017-04-10T06:01:05.596Z,5400
2017-04-10T06:02:07.429Z,5512
2017-04-10T06:03:09.279Z,5607
2017-04-10T06:04:11.123Z,5664
2017-04-10T06:05:12.955Z,5706
2017-04-10T06:06:14.852Z,5728
2017-04-10T06:07:16.710Z,5783
2017-04-10T06:08:18.588Z,5688
2017-04-10T06:09:20.417Z,5644
2017-04-10T06:10:22.247Z,5676
2017-04-10T06:11:24.071Z,5763
2017-04-10T06:12:25.906Z,5847
2017-04-10T06:13:28.075Z,5913
2017-04-10T06:14:29.915Z,6069
2017-04-10T06:15:31.777Z,6162
2017-04-10T06:16:33.953Z,6240
2017-04-10T06:17:35.831Z,6328
2017-04-10T06:18:37.674Z,6367
2017-04-10T06:19:39.502Z,6471
2017-04-10T06:20:41.376Z,6490
2017-04-10T06:21:43.201Z,6444
2017-04-10T06:22:45.388Z,6380
2017-04-10T06:23:47.256Z,6389
2017-04-10T06:24:49.535Z,6389
2017-04-10T06:25:51.358Z,6389
2017-04-10T06:26:53.291Z,6406
2017-04-10T06:27:55.131Z,6358
2017-04-10T06:28:57.025Z,6222
2017-04-10T06:29:58.859Z,5950
2017-04-10T06:31:00.701Z,5912
2017-04-10T06:32:02.527Z,5675
2017-04-10T06:33:04.362Z,5566
2017-04-10T06:34:06.253Z,5417
2017-04-10T06:35:08.086Z,5373
2017-04-10T06:36:09.913Z,5413
2017-04-10T06:37:11.884Z,5413
2017-04-10T06:38:13.707Z,5378
2017-04-10T06:39:15.540Z,5427
2017-04-10T06:40:17.374Z,5634
2017-04-10T06:41:19.203Z,5879
2017-04-10T06:42:21.098Z,5958
2017-04-10T06:43:22.933Z,5983
2017-04-10T06:44:24.756Z,6128
2017-04-10T06:45:26.617Z,6229
2017-04-10T06:46:28.449Z,6207
2017-04-10T06:47:30.285Z,6253
2017-04-10T06:48:32.166Z,6146
2017-04-10T06:49:34.016Z,6585
2017-04-10T06:50:36.177Z,6703
2017-04-10T06:51:38.348Z,7006
2017-04-10T06:52:40.185Z,7204
2017-04-10T06:53:42.002Z,7384
2017-04-10T06:54:43.833Z,7451
2017-04-10T06:55:45.668Z,7547
2017-04-10T06:56:47.492Z,7778
2017-04-10T06:57:49.462Z,8001
2017-04-10T06:58:51.299Z,8135
2017-04-10T06:59:53.132Z,8189
2017-04-10T07:00:55.077Z,8102
2017-04-10T07:01:57.292Z,7988
2017-04-10T07:02:59.118Z,8520
2017-04-10T07:04:00.946Z,8938
2017-04-10T07:05:02.784Z,9109
2017-04-10T07:06:04.834Z,9299
2017-04-10T07:07:06.664Z,9598
2017-04-10T07:08:08.668Z,9681
2017-04-10T07:09:10.496Z,9673
2017-04-10T07:10:12.320Z,9752
2017-04-10T07:11:14.154Z,9870
2017-04-10T07:12:16.114Z,9929
2017-04-10T07:13:17.939Z,9729
2017-04-10T07:14:19.988Z,9500
2017-04-10T07:15:21.824Z,9676
2017-04-10T07:16:23.725Z,9516
2017-04-10T07:17:25.552Z,8560
2017-04-10T07:18:27.391Z,8266
2017-04-10T07:19:29.385Z,8416
2017-04-10T07:20:31.214Z,9210
2017-04-10T07:21:33.055Z,10286
2017-04-10T07:22:34.887Z,11034
2017-04-10T07:23:36.730Z,11679
2017-04-10T07:24:38.557Z,11669
2017-04-10T07:25:40.390Z,12198
2017-04-10T07:26:42.215Z,13029
2017-04-10T07:27:44.051Z,13863
2017-04-10T07:28:45.887Z,13801
2017-04-10T07:29:47.769Z,13904
2017-04-10T07:30:49.601Z,14253
2017-04-10T07:31:51.431Z,14735
2017-04-10T07:32:53.271Z,15330
2017-04-10T07:33:55.109Z,16399
2017-04-10T07:34:56.935Z,16972
2017-04-10T07:35:58.809Z,17644
2017-04-10T07:37:00.647Z,18012
2017-04-10T07:38:02.485Z,17443
2017-04-10T07:39:04.311Z,16788
2017-04-10T07:40:06.144Z,15813
2017-04-10T07:41:08.352Z,15350
2017-04-10T07:42:10.185Z,15190
2017-04-10T07:43:12.024Z,15508
2017-04-10T07:44:13.855Z,15662
2017-04-10T07:45:16.030Z,16513
2017-04-10T07:46:17.890Z,16927
2017-04-10T07:47:19.728Z,16305
2017-04-10T07:48:21.561Z,15671
2017-04-10T07:49:23.395Z,15203
2017-04-10T07:50:25.236Z,14988
2017-04-10T07:51:27.065Z,15012
2017-04-10T07:52:29.589Z,15888
2017-04-10T07:53:31.415Z,16097
2017-04-10T07:54:33.442Z,15292
2017-04-10T07:55:35.302Z,15316
2017-04-10T07:56:37.144Z,14878
2017-04-10T07:57:38.980Z,13225
2017-04-10T07:58:40.813Z,12315
2017-04-10T07:59:42.642Z,11860
2017-04-10T08:00:44.491Z,11784
2017-04-10T08:01:46.330Z,11896
2017-04-10T08:02:48.163Z,12024
2017-04-10T08:03:49.991Z,12520
2017-04-10T08:04:51.838Z,12336
2017-04-10T08:05:53.673Z,12699
2017-04-10T08:06:55.507Z,13524
2017-04-10T08:07:57.330Z,14944
2017-04-10T08:08:59.163Z,15209
2017-04-10T08:10:01.002Z,15818
2017-04-10T08:11:02.840Z,15671
2017-04-10T08:12:04.670Z,16491
2017-04-10T08:13:06.506Z,17193
2017-04-10T08:14:08.342Z,18749
2017-04-10T08:15:10.441Z,21508
2017-04-10T08:16:12.268Z,23668
2017-04-10T08:17:14.101Z,17419
2017-04-10T08:18:15.934Z,16024
2017-04-10T08:19:17.772Z,18680
2017-04-10T08:20:19.603Z,16229
2017-04-10T08:21:21.436Z,16347
2017-04-10T08:22:23.266Z,16494
2017-04-10T08:23:25.436Z,24106
2017-04-10T08:24:27.277Z,26870
2017-04-10T08:25:29.107Z,32733
2017-04-10T08:26:31.245Z,65536
2017-04-10T08:27:33.086Z,65536
2017-04-10T08:28:34.916Z,65536
2017-04-10T08:29:36.746Z,28120
2017-04-10T08:30:38.573Z,17274
2017-04-10T08:31:40.422Z,32960
2017-04-10T08:32:42.285Z,65536
2017-04-10T08:33:44.125Z,32379
2017-04-10T08:34:45.963Z,29550
2017-04-10T08:35:47.790Z,21365
2017-04-10T08:36:49.625Z,65536
2017-04-10T08:37:51.462Z,65536
2017-04-10T08:38:53.301Z,65536
2017-04-10T08:39:55.474Z,65536
2017-04-10T08:40:57.343Z,65536
2017-04-10T08:41:59.170Z,65536
2017-04-10T08:43:01.024Z,65536
2017-04-10T08:44:02.864Z,25614
2017-04-10T08:45:04.686Z,24854
2017-04-10T08:46:06.525Z,24821
2017-04-10T08:47:08.361Z,24110
2017-04-10T08:48:10.204Z,22762
2017-04-10T08:49:12.035Z,19687
2017-04-10T08:50:13.914Z,17397
2017-04-10T08:51:16.062Z,16078
2017-04-10T08:52:17.904Z,17941
2017-04-10T08:53:19.733Z,15661
2017-04-10T08:54:21.559Z,16059
2017-04-10T08:55:23.652Z,15665
2017-04-10T08:56:25.500Z,20118
2017-04-10T08:57:27.330Z,21262
2017-04-10T08:58:29.165Z,22083
2017-04-10T08:59:30.998Z,22968
2017-04-10T09:00:32.838Z,18393
2017-04-10T09:01:34.678Z,15288
2017-04-10T09:02:36.508Z,16531
2017-04-10T09:03:38.347Z,15061
2017-04-10T09:04:40.188Z,13694
2017-04-10T09:05:42.035Z,10989
2017-04-10T09:06:44.149Z,13551
2017-04-10T09:07:45.982Z,12734
2017-04-10T09:08:47.818Z,12776
2017-04-10T09:09:49.645Z,11006
2017-04-10T09:10:51.476Z,11720
2017-04-10T09:11:53.309Z,13828
2017-04-10T09:12:55.142Z,9663
2017-04-10T09:13:56.978Z,9045
2017-04-10T09:14:58.838Z,11254
2017-04-10T09:16:00.669Z,14965
2017-04-10T09:17:02.495Z,16487
2017-04-10T09:18:04.664Z,18456
2017-04-10T09:19:06.834Z,17204
2017-04-10T09:20:08.668Z,16292
2017-04-10T09:21:10.509Z,17425
2017-04-10T09:22:12.340Z,20116
2017-04-10T09:23:14.175Z,20654
2017-04-10T09:24:16.365Z,18870
2017-04-10T09:25:18.202Z,20767
2017-04-10T09:26:20.382Z,65536
2017-04-10T09:27:22.205Z,19275
2017-04-10T09:28:24.033Z,17847
2017-04-10T09:29:26.213Z,18892
2017-04-10T09:30:28.036Z,17402
2017-04-10T09:31:29.868Z,15535
2017-04-10T09:32:32.255Z,11682
2017-04-10T09:33:34.091Z,11071
2017-04-10T09:34:35.927Z,13982
2017-04-10T09:35:37.762Z,13319
2017-04-10T09:36:39.587Z,12372
2017-04-10T09:37:41.415Z,9848
2017-04-10T09:38:43.292Z,10963
2017-04-10T09:39:45.121Z,9361
2017-04-10T09:40:46.957Z,9141
2017-04-10T09:41:48.785Z,11364
2017-04-10T09:42:50.626Z,9380
2017-04-10T09:43:52.454Z,8431
2017-04-10T09:44:54.287Z,8069
2017-04-10T09:45:56.111Z,8747
2017-04-10T09:46:57.963Z,9428
2017-04-10T09:47:59.793Z,9541
2017-04-10T09:49:01.619Z,9607
2017-04-10T09:50:03.455Z,12978
2017-04-10T09:51:05.289Z,15725
2017-04-10T09:52:07.120Z,14021
2017-04-10T09:53:08.977Z,12441
2017-04-10T09:54:10.808Z,12128
2017-04-10T09:55:13.016Z,10132
2017-04-10T09:56:14.843Z,9514
2017-04-10T09:57:16.685Z,8806
2017-04-10T09:58:18.520Z,7368
2017-04-10T09:59:20.359Z,7110
2017-04-10T10:00:22.197Z,9569
2017-04-10T10:01:24.026Z,11899
2017-04-10T10:02:25.854Z,10538
2017-04-10T10:03:27.691Z,10541
2017-04-10T10:04:29.526Z,9000
2017-04-10T10:05:31.353Z,8161
2017-04-10T10:06:33.186Z,8179
2017-04-10T10:07:35.013Z,8136
2017-04-10T10:08:37.171Z,7701
2017-04-10T10:09:38.994Z,7270
2017-04-10T10:10:40.821Z,7857
2017-04-10T10:11:42.647Z,9356
2017-04-10T10:12:44.489Z,10294
2017-04-10T10:13:46.313Z,10729
2017-04-10T10:14:48.154Z,9779
2017-04-10T10:15:49.984Z,8341
2017-04-10T10:16:51.811Z,10816
2017-04-10T10:17:53.637Z,13129
2017-04-10T10:18:55.463Z,11647
2017-04-10T10:19:57.303Z,12372
2017-04-10T10:20:59.136Z,15876
2017-04-10T10:22:00.971Z,17531
2017-04-10T10:23:02.805Z,22759
2017-04-10T10:24:04.648Z,23589
2017-04-10T10:25:06.470Z,25186
2017-04-10T10:26:08.652Z,25362
2017-04-10T10:27:10.478Z,25198
2017-04-10T10:28:12.322Z,21347
2017-04-10T10:29:14.149Z,18059
2017-04-10T10:30:15.973Z,17334
2017-04-10T10:31:17.797Z,17974
2017-04-10T10:32:19.626Z,15946
2017-04-10T10:33:21.454Z,15390
2017-04-10T10:34:23.324Z,14067
2017-04-10T10:35:25.156Z,17296
2017-04-10T10:36:27.002Z,19184
2017-04-10T10:37:28.837Z,15628
2017-04-10T10:38:30.675Z,13495
2017-04-10T10:39:32.498Z,11065
2017-04-10T10:40:34.325Z,9597
2017-04-10T10:41:36.162Z,9567
2017-04-10T10:42:37.993Z,14543
2017-04-10T10:43:39.820Z,19954
2017-04-10T10:44:41.663Z,29339
2017-04-10T10:45:43.535Z,30881
2017-04-10T10:46:45.360Z,33320
2017-04-10T10:47:47.196Z,31630
2017-04-10T10:48:49.025Z,17515
2017-04-10T10:49:50.856Z,16421
2017-04-10T10:50:52.701Z,13597
2017-04-10T10:51:54.536Z,13336
2017-04-10T10:52:56.364Z,14072
2017-04-10T10:53:58.196Z,16943
2017-04-10T10:55:00.031Z,17829
2017-04-10T10:56:01.866Z,20675
2017-04-10T10:57:03.707Z,24304
2017-04-10T10:58:05.535Z,25044
2017-04-10T10:59:07.360Z,25563
2017-04-10T11:00:09.183Z,18399
2017-04-10T11:01:11.020Z,15878
2017-04-10T11:02:12.847Z,19221
2017-04-10T11:03:14.681Z,18977
2017-04-10T11:04:16.514Z,65536
2017-04-10T11:05:18.345Z,27720
2017-04-10T11:06:20.180Z,24915
2017-04-10T11:07:22.018Z,29210
2017-04-10T11:08:23.843Z,30979
2017-04-10T11:09:25.691Z,34631
2017-04-10T11:10:27.517Z,35369
2017-04-10T11:11:29.353Z,65536
2017-04-10T11:12:31.541Z,35280
2017-04-10T11:13:33.376Z,29911
2017-04-10T11:14:35.203Z,65536
2017-04-10T11:15:37.036Z,65536
2017-04-10T11:16:38.875Z,16143
2017-04-10T11:17:40.701Z,65536
2017-04-10T11:18:42.543Z,65536
2017-04-10T11:19:44.402Z,65536
2017-04-10T11:20:46.232Z,65536
2017-04-10T11:21:48.408Z,65536
2017-04-10T11:22:50.256Z,65536
2017-04-10T11:23:52.082Z,24972
2017-04-10T11:24:53.915Z,20914
2017-04-10T11:25:55.752Z,17017
2017-04-10T11:26:57.895Z,20227
2017-04-10T11:28:00.007Z,20010
2017-04-10T11:29:01.845Z,22018
2017-04-10T11:30:03.677Z,31021
2017-04-10T11:31:05.525Z,30316
2017-04-10T11:32:07.358Z,21724
2017-04-10T11:33:09.219Z,25424
2017-04-10T11:34:11.053Z,65536
2017-04-10T11:35:12.915Z,28954
2017-04-10T11:36:14.754Z,23659
2017-04-10T11:37:16.606Z,32822
2017-04-10T11:38:18.772Z,27925
2017-04-10T11:39:20.602Z,28820
2017-04-10T11:40:22.774Z,23003
2017-04-10T11:41:24.624Z,22354
2017-04-10T11:42:26.460Z,33381
2017-04-10T11:43:28.292Z,17105
2017-04-10T11:44:30.476Z,20533
2017-04-10T11:45:32.316Z,21104
2017-04-10T11:46:34.156Z,16983
2017-04-10T11:47:35.997Z,15755
2017-04-10T11:48:38.514Z,17706
2017-04-10T11:49:40.345Z,18509
2017-04-10T11:50:42.185Z,18244
2017-04-10T11:51:44.021Z,18551
2017-04-10T11:52:45.852Z,21556
2017-04-10T11:53:47.692Z,25880
2017-04-10T11:54:49.528Z,20761
2017-04-10T11:55:51.373Z,18486
2017-04-10T11:56:53.221Z,19002
2017-04-10T11:57:55.055Z,18010
2017-04-10T11:58:56.900Z,19520
2017-04-10T11:59:58.731Z,20577
2017-04-10T12:01:00.560Z,23267
2017-04-10T12:02:02.395Z,22489
2017-04-10T12:03:04.241Z,24018
2017-04-10T12:04:06.096Z,23075
2017-04-10T12:05:08.264Z,65536
2017-04-10T12:06:10.094Z,65536
2017-04-10T12:07:11.935Z,65536
2017-04-10T12:08:13.767Z,65536
2017-04-10T12:09:15.599Z,65536
2017-04-10T12:10:17.448Z,24301
2017-04-10T12:11:19.288Z,19058
2017-04-10T12:12:21.142Z,17065
2017-04-10T12:13:22.970Z,19110
2017-04-10T12:14:24.816Z,22988
2017-04-10T12:15:26.649Z,19823
2017-04-10T12:16:28.481Z,20326
2017-04-10T12:17:30.331Z,25218
2017-04-10T12:18:32.184Z,24487
2017-04-10T12:19:34.358Z,65536
2017-04-10T12:20:36.199Z,65536
2017-04-10T12:21:38.039Z,27662
2017-04-10T12:22:39.866Z,65536
2017-04-10T12:23:41.719Z,22462
2017-04-10T12:24:43.557Z,31447
2017-04-10T12:25:45.449Z,65536
2017-04-10T12:26:47.311Z,27613
2017-04-10T12:27:49.155Z,65536
2017-04-10T12:28:51.003Z,65536
2017-04-10T12:29:52.838Z,65536
2017-04-10T12:30:54.671Z,65536
2017-04-10T12:31:56.850Z,65536
2017-04-10T12:32:59.024Z,65536
2017-04-10T12:34:00.874Z,65536
2017-04-10T12:35:03.055Z,23067
2017-04-10T12:36:04.916Z,22095
2017-04-10T12:37:06.748Z,23097
2017-04-10T12:38:08.622Z,22161
2017-04-10T12:39:10.805Z,65536
2017-04-10T12:40:12.635Z,65536
2017-04-10T12:41:14.481Z,65536
2017-04-10T12:42:16.320Z,36883
2017-04-10T12:43:18.157Z,65536
2017-04-10T12:44:20.329Z,65536
2017-04-10T12:45:22.177Z,34445
2017-04-10T12:46:24.019Z,65536
2017-04-10T12:47:25.862Z,65536
2017-04-10T12:48:27.709Z,65536
2017-04-10T12:49:29.559Z,65536
2017-04-10T12:50:31.393Z,65536
2017-04-10T12:51:33.230Z,65536
2017-04-10T12:52:35.096Z,65536
2017-04-10T12:53:36.950Z,65536
2017-04-10T12:54:38.796Z,65536
2017-04-10T12:55:40.651Z,65536
2017-04-10T12:56:42.485Z,21365
2017-04-10T12:57:44.344Z,31334
2017-04-10T12:58:46.181Z,20897
2017-04-10T12:59:48.036Z,26674
2017-04-10T13:00:49.890Z,26167
2017-04-10T13:01:51.732Z,23704
2017-04-10T13:02:53.596Z,16287
2017-04-10T13:03:55.447Z,16330
2017-04-10T13:04:57.291Z,19370
2017-04-10T13:05:59.128Z,22530
2017-04-10T13:07:00.965Z,27213
2017-04-10T13:08:02.801Z,26278
2017-04-10T13:09:04.656Z,27337
2017-04-10T13:10:06.819Z,27942
2017-04-10T13:11:09.012Z,22092
2017-04-10T13:12:11.186Z,21339
2017-04-10T13:13:13.027Z,24635
2017-04-10T13:14:14.873Z,24549
2017-04-10T13:15:16.711Z,25129
2017-04-10T13:16:18.548Z,23870
2017-04-10T13:17:20.390Z,20059
2017-04-10T13:18:22.305Z,18789
2017-04-10T13:19:24.144Z,18860
2017-04-10T13:20:25.974Z,19337
2017-04-10T13:21:27.821Z,20245
2017-04-10T13:22:29.668Z,22761
2017-04-10T13:23:31.504Z,21429
2017-04-10T13:24:33.336Z,18919
2017-04-10T13:25:35.187Z,21551
2017-04-10T13:26:37.030Z,17460
2017-04-10T13:27:38.869Z,14922
2017-04-10T13:28:40.727Z,14609
2017-04-10T13:29:42.564Z,15051
2017-04-10T13:30:44.410Z,15912
2017-04-10T13:31:46.239Z,17482
2017-04-10T13:32:48.087Z,18857
2017-04-10T13:33:49.932Z,23085
2017-04-10T13:34:51.767Z,24992
2017-04-10T13:35:53.600Z,22399
2017-04-10T13:36:55.447Z,19796
2017-04-10T13:37:57.281Z,19826
2017-04-10T13:38:59.131Z,16977
2017-04-10T13:40:00.973Z,65536
2017-04-10T13:41:02.809Z,28080
2017-04-10T13:42:04.647Z,29689
2017-04-10T13:43:06.480Z,35063
2017-04-10T13:44:08.315Z,65536
2017-04-10T13:45:10.479Z,32922
2017-04-10T13:46:12.323Z,28322
2017-04-10T13:47:14.150Z,24640
2017-04-10T13:48:15.981Z,20473
2017-04-10T13:49:17.816Z,24665
2017-04-10T13:50:19.650Z,21910
2017-04-10T13:51:21.480Z,19358
2017-04-10T13:52:23.314Z,18883
2017-04-10T13:53:25.145Z,19015
2017-04-10T13:54:26.984Z,19145
2017-04-10T13:55:28.814Z,28241
2017-04-10T13:56:30.649Z,35539
2017-04-10T13:57:32.477Z,27898